createdAt,value
2019-04-06T00:01:35.387Z,33.15
2019-04-06T00:04:04.722Z,33.75
2019-04-06T00:06:33.959Z,32.83
2019-04-06T00:09:04.768Z,33.08
2019-04-06T00:11:34.375Z,34.15
2019-04-06T00:14:03.568Z,34.05
2019-04-06T00:16:32.880Z,35.40
2019-04-06T00:19:02.052Z,32.58
2019-04-06T00:21:31.325Z,35.00
2019-04-06T00:24:00.559Z,33.73
2019-04-06T00:26:29.809Z,35.98
2019-04-06T00:28:59.101Z,35.17
2019-04-06T00:31:37.223Z,34.45
2019-04-06T00:34:06.596Z,32.93
2019-04-06T00:36:35.942Z,34.38
2019-04-06T00:39:07.062Z,34.70
2019-04-06T00:41:36.250Z,33.88
2019-04-06T00:44:05.740Z,32.53
2019-04-06T00:46:34.988Z,31.48
2019-04-06T00:49:04.219Z,31.17
2019-04-06T00:51:33.570Z,31.37
2019-04-06T00:54:02.866Z,32.88
2019-04-06T00:56:32.141Z,31.82
2019-04-06T00:59:01.470Z,31.52
2019-04-06T01:01:30.844Z,31.73
2019-04-06T01:04:00.149Z,31.95
2019-04-06T01:06:29.446Z,30.92
2019-04-06T01:08:58.746Z,31.52
2019-04-06T01:11:27.937Z,29.95
2019-04-06T01:13:58.131Z,31.82
2019-04-06T01:16:27.421Z,30.80
2019-04-06T01:18:56.786Z,29.10
2019-04-06T01:21:26.102Z,31.07
2019-04-06T01:23:55.388Z,30.60
2019-04-06T01:26:24.621Z,30.65
2019-04-06T01:28:53.801Z,30.95
2019-04-06T01:31:23.115Z,31.12
2019-04-06T01:33:52.410Z,30.25
2019-04-06T01:36:21.639Z,29.90
2019-04-06T01:38:50.856Z,29.50
2019-04-06T01:41:20.225Z,30.40
2019-04-06T01:43:49.479Z,30.60
2019-04-06T01:46:18.757Z,31.12
2019-04-06T01:48:48.158Z,33.02
2019-04-06T01:51:17.323Z,31.57
2019-04-06T01:53:46.663Z,32.48
2019-04-06T01:56:18.713Z,31.65
2019-04-06T01:58:46.873Z,30.72
2019-04-06T02:01:17.756Z,30.75
2019-04-06T02:03:46.935Z,29.10
2019-04-06T02:06:16.206Z,31.73
2019-04-06T02:08:45.426Z,31.87
2019-04-06T02:11:14.852Z,30.97
2019-04-06T02:13:44.126Z,31.62
2019-04-06T02:16:13.319Z,30.72
2019-04-06T02:18:42.601Z,30.68
2019-04-06T02:21:11.906Z,31.23
2019-04-06T02:23:41.263Z,30.55
2019-04-06T02:26:10.684Z,30.27
2019-04-06T02:28:39.899Z,30.43
2019-04-06T02:31:13.902Z,29.85
2019-04-06T02:33:47.867Z,31.68
2019-04-06T02:36:35.064Z,30.48
2019-04-06T02:39:07.473Z,30.48
2019-04-06T02:41:50.466Z,31.70
2019-04-06T02:44:19.793Z,32.08
2019-04-06T02:46:49.193Z,31.40
2019-04-06T02:49:18.448Z,32.28
2019-04-06T02:51:49.258Z,32.60
2019-04-06T02:54:18.872Z,30.00
2019-04-06T02:56:48.255Z,31.70
2019-04-06T02:59:17.888Z,31.65
2019-04-06T03:01:47.335Z,29.77
2019-04-06T03:04:16.639Z,29.25
2019-04-06T03:06:45.925Z,28.38
2019-04-06T03:09:15.218Z,29.60
2019-04-06T03:11:44.502Z,28.90
2019-04-06T03:14:13.821Z,29.20
2019-04-06T03:16:43.109Z,29.55
2019-04-06T03:19:12.395Z,28.10
2019-04-06T03:21:41.683Z,29.02
2019-04-06T03:24:11.410Z,29.12
2019-04-06T03:26:40.884Z,28.15
2019-04-06T03:29:11.398Z,27.77
2019-04-06T03:31:40.703Z,28.85
2019-04-06T03:34:09.991Z,26.62
2019-04-06T03:36:39.272Z,26.87
2019-04-06T03:39:09.737Z,28.00
2019-04-06T03:41:39.485Z,29.42
2019-04-06T03:44:08.833Z,30.45
2019-04-06T03:46:38.368Z,31.33
2019-04-06T03:49:07.614Z,31.62
2019-04-06T03:51:36.952Z,30.52
2019-04-06T03:54:06.402Z,30.90
2019-04-06T03:56:35.928Z,29.95
2019-04-06T03:59:05.514Z,30.40
2019-04-06T04:01:34.794Z,30.10
2019-04-06T04:04:04.012Z,30.23
2019-04-06T04:06:33.261Z,28.92
2019-04-06T04:09:05.502Z,30.00
2019-04-06T04:11:34.734Z,29.55
2019-04-06T04:14:04.213Z,28.85
2019-04-06T04:16:33.678Z,28.90
2019-04-06T04:19:02.996Z,29.00
2019-04-06T04:21:33.349Z,30.70
2019-04-06T04:24:02.689Z,29.10
2019-04-06T04:26:32.130Z,29.60
2019-04-06T04:29:01.497Z,29.37
2019-04-06T04:31:31.056Z,30.45
2019-04-06T04:34:00.297Z,31.17
2019-04-06T04:36:29.531Z,28.40
2019-04-06T04:38:58.713Z,29.00
2019-04-06T04:41:27.875Z,28.42
2019-04-06T04:43:57.055Z,31.33
2019-04-06T04:46:26.294Z,29.12
2019-04-06T04:48:56.056Z,30.45
2019-04-06T04:51:25.574Z,29.77
2019-04-06T04:53:55.026Z,28.62
2019-04-06T04:56:24.244Z,29.37
2019-04-06T04:58:53.509Z,28.85
2019-04-06T05:01:22.782Z,29.00
2019-04-06T05:03:52.155Z,27.82
2019-04-06T05:06:21.371Z,29.65
2019-04-06T05:08:50.699Z,29.45
2019-04-06T05:11:19.919Z,28.92
2019-04-06T05:13:49.238Z,31.33
2019-04-06T05:16:18.803Z,30.20
2019-04-06T05:18:49.458Z,32.30
2019-04-06T05:21:19.246Z,31.75
2019-04-06T05:23:48.463Z,31.68
2019-04-06T05:26:17.748Z,32.85
2019-04-06T05:28:46.978Z,31.73
2019-04-06T05:31:17.385Z,31.55
2019-04-06T05:33:47.098Z,30.77
2019-04-06T05:36:16.374Z,32.28
2019-04-06T05:38:45.918Z,33.95
2019-04-06T05:41:15.275Z,33.33
2019-04-06T05:43:44.505Z,36.05
2019-04-06T05:46:13.734Z,35.55
2019-04-06T05:48:43.112Z,34.23
2019-04-06T05:51:12.367Z,35.23
2019-04-06T05:53:41.595Z,36.15
2019-04-06T05:56:11.756Z,36.68
2019-04-06T05:58:44.259Z,35.13
2019-04-06T06:01:13.113Z,35.05
2019-04-06T06:03:42.384Z,36.40
2019-04-06T06:06:12.816Z,40.28
2019-04-06T06:08:42.642Z,35.35
2019-04-06T06:11:11.875Z,34.18
2019-04-06T06:13:41.036Z,35.30
2019-04-06T06:16:11.627Z,35.28
2019-04-06T06:18:41.144Z,41.02
2019-04-06T06:21:10.382Z,38.55
2019-04-06T06:23:39.603Z,38.30
2019-04-06T06:26:08.915Z,39.18
2019-04-06T06:28:38.188Z,39.75
2019-04-06T06:31:07.524Z,39.92
2019-04-06T06:33:36.696Z,41.25
2019-04-06T06:36:05.876Z,38.80
2019-04-06T06:38:35.051Z,38.25
2019-04-06T06:41:04.308Z,36.05
2019-04-06T06:43:33.616Z,36.60
2019-04-06T06:46:02.847Z,36.50
2019-04-06T06:48:33.262Z,37.05
2019-04-06T06:51:02.538Z,37.48
2019-04-06T06:53:31.958Z,39.03
2019-04-06T06:56:02.708Z,38.73
2019-04-06T06:58:32.019Z,38.33
2019-04-06T07:01:03.087Z,38.17
2019-04-06T07:03:32.174Z,37.23
2019-04-06T07:06:01.449Z,37.08
2019-04-06T07:08:30.690Z,33.53
2019-04-06T07:10:59.987Z,31.97
2019-04-06T07:13:29.256Z,32.13
2019-04-06T07:15:58.476Z,32.53
2019-04-06T07:18:27.773Z,36.70
2019-04-06T07:20:57.028Z,35.10
2019-04-06T07:23:26.485Z,34.00
2019-04-06T07:25:58.309Z,33.55
2019-04-06T07:28:37.122Z,30.43
2019-04-06T07:30:57.873Z,27.93
2019-04-06T07:33:27.400Z,27.20
2019-04-06T07:35:56.886Z,27.42
2019-04-06T07:38:26.714Z,27.60
2019-04-06T07:40:55.905Z,28.47
2019-04-06T07:43:25.084Z,28.70
2019-04-06T07:45:54.633Z,28.62
2019-04-06T07:48:24.119Z,29.32
2019-04-06T07:50:53.782Z,28.87
2019-04-06T07:53:23.460Z,27.58
2019-04-06T07:55:52.953Z,27.90
2019-04-06T07:58:22.438Z,25.95
2019-04-06T08:00:51.981Z,25.30
2019-04-06T08:03:21.615Z,28.15
2019-04-06T08:05:51.118Z,29.87
2019-04-06T08:08:20.551Z,25.95
2019-04-06T08:10:50.280Z,25.92
2019-04-06T08:13:19.963Z,25.68
2019-04-06T08:15:49.634Z,25.57
2019-04-06T08:18:19.213Z,24.67
2019-04-06T08:20:48.602Z,25.92
2019-04-06T08:23:18.025Z,24.05
2019-04-06T08:25:47.497Z,25.10
2019-04-06T08:28:16.969Z,24.82
2019-04-06T08:30:47.124Z,26.87
2019-04-06T08:33:18.025Z,26.42
2019-04-06T08:35:47.555Z,25.32
2019-04-06T08:38:17.065Z,25.80
2019-04-06T08:40:47.181Z,27.13
2019-04-06T08:43:16.658Z,25.95
2019-04-06T08:45:46.043Z,26.73
2019-04-06T08:48:15.643Z,48.17
2019-04-06T08:50:45.146Z,39.67
2019-04-06T08:53:14.641Z,31.07
2019-04-06T08:55:44.242Z,26.10
2019-04-06T08:58:13.979Z,21.65
2019-04-06T09:00:43.509Z,22.02
2019-04-06T09:03:13.040Z,20.88
2019-04-06T09:05:42.508Z,23.83
2019-04-06T09:08:11.921Z,20.70
2019-04-06T09:10:41.571Z,18.20
2019-04-06T09:13:11.254Z,17.52
2019-04-06T09:15:40.832Z,17.87
2019-04-06T09:18:10.303Z,17.87
2019-04-06T09:20:39.699Z,17.00
2019-04-06T09:23:09.285Z,18.90
2019-04-06T09:25:38.780Z,18.20
2019-04-06T09:28:08.264Z,18.55
2019-04-06T09:30:37.760Z,17.77
2019-04-06T09:33:07.245Z,19.32
2019-04-06T09:35:37.004Z,17.45
2019-04-06T09:38:08.327Z,17.30
2019-04-06T09:40:37.821Z,17.05
2019-04-06T09:43:07.292Z,17.02
2019-04-06T09:45:53.267Z,17.15
2019-04-06T09:48:24.450Z,16.55
2019-04-06T09:50:58.435Z,15.72
2019-04-06T09:53:44.703Z,15.55
2019-04-06T09:58:52.710Z,15.78
2019-04-06T10:01:38.067Z,16.60
2019-04-06T10:04:11.886Z,16.02
2019-04-06T10:06:45.658Z,15.48
2019-04-06T10:09:28.698Z,16.27
2019-04-06T10:12:11.793Z,18.50
2019-04-06T10:14:59.593Z,17.67
2019-04-06T10:17:42.842Z,16.45
2019-04-06T10:20:23.104Z,16.77
2019-04-06T10:22:57.353Z,17.10
2019-04-06T10:25:28.774Z,18.23
2019-04-06T10:28:07.542Z,17.45
2019-04-06T10:30:50.516Z,16.80
2019-04-06T10:33:27.356Z,17.40
2019-04-06T10:35:58.595Z,18.25
2019-04-06T10:38:30.006Z,19.10
2019-04-06T10:41:04.339Z,20.90
2019-04-06T10:43:51.845Z,26.82
2019-04-06T10:46:22.916Z,23.35
2019-04-06T10:49:09.191Z,21.02
2019-04-06T10:54:20.988Z,21.82
2019-04-06T10:56:58.392Z,31.35
2019-04-06T10:59:32.871Z,26.93
2019-04-06T11:02:04.411Z,23.07
2019-04-06T11:04:53.418Z,22.42
2019-04-06T11:07:30.198Z,22.48
2019-04-06T11:10:17.717Z,22.00
2019-04-06T11:13:05.280Z,21.50
2019-04-06T11:15:51.590Z,21.45
2019-04-06T11:21:15.904Z,21.90
2019-04-06T11:23:49.900Z,21.75
2019-04-06T11:26:21.152Z,21.77
2019-04-06T11:29:08.348Z,22.13
2019-04-06T11:31:48.672Z,21.10
2019-04-06T11:34:37.600Z,21.57
2019-04-06T11:37:09.851Z,20.45
2019-04-06T11:39:57.187Z,20.62
2019-04-06T11:42:31.491Z,19.42
2019-04-06T11:45:05.417Z,22.87
2019-04-06T11:47:45.636Z,37.70
2019-04-06T11:50:19.969Z,29.15
2019-04-06T11:53:06.560Z,27.00
2019-04-06T11:55:39.405Z,25.80
2019-04-06T11:58:10.735Z,22.35
2019-04-06T12:01:01.289Z,21.60
2019-04-06T12:03:35.456Z,19.85
2019-04-06T12:06:07.038Z,20.23
2019-04-06T12:08:38.357Z,19.73
2019-04-06T12:11:09.750Z,21.85
2019-04-06T12:13:53.452Z,21.62
2019-04-06T12:16:27.869Z,18.87
2019-04-06T12:18:59.270Z,18.10
2019-04-06T12:21:33.250Z,17.85
2019-04-06T12:24:10.464Z,18.85
2019-04-06T12:26:50.651Z,25.60
2019-04-06T12:29:37.881Z,21.27
2019-04-06T12:32:11.560Z,19.62
2019-04-06T12:34:42.709Z,19.25
2019-04-06T12:37:16.831Z,18.07
2019-04-06T12:39:53.368Z,18.85
2019-04-06T12:42:29.704Z,18.62
2019-04-06T12:45:17.174Z,17.90
2019-04-06T12:47:51.040Z,18.48
2019-04-06T12:50:25.187Z,17.30
2019-04-06T12:53:02.437Z,17.98
2019-04-06T12:55:39.469Z,18.30
2019-04-06T12:58:26.913Z,19.92
2019-04-06T13:01:07.234Z,17.85
2019-04-06T13:03:41.429Z,17.00
2019-04-06T13:06:28.788Z,15.80
2019-04-06T13:09:16.893Z,16.48
2019-04-06T13:11:57.521Z,15.95
2019-04-06T13:14:31.507Z,15.80
2019-04-06T13:17:19.091Z,15.38
2019-04-06T13:19:50.155Z,15.13
2019-04-06T13:22:31.016Z,16.25
2019-04-06T13:25:02.621Z,17.07
2019-04-06T13:27:34.246Z,17.90
2019-04-06T13:30:24.082Z,18.27
2019-04-06T13:33:04.397Z,17.92
2019-04-06T13:35:35.478Z,17.52
2019-04-06T13:38:23.399Z,17.40
2019-04-06T13:41:12.851Z,20.37
2019-04-06T13:43:53.013Z,30.15
2019-04-06T13:46:24.096Z,25.10
2019-04-06T13:49:11.351Z,28.38
2019-04-06T13:51:58.633Z,24.82
2019-04-06T13:54:32.594Z,21.02
2019-04-06T13:57:18.816Z,18.45
2019-04-06T14:00:08.757Z,18.57
2019-04-06T14:02:42.374Z,19.12
2019-04-06T14:05:20.105Z,19.00
2019-04-06T14:07:57.021Z,19.98
2019-04-06T14:10:43.239Z,20.75
2019-04-06T14:13:18.019Z,19.20
2019-04-06T14:15:52.234Z,20.55
2019-04-06T14:18:23.424Z,20.00
2019-04-06T14:21:00.260Z,19.62
2019-04-06T14:23:31.767Z,19.07
2019-04-06T14:26:21.083Z,19.45
2019-04-06T14:28:55.071Z,18.23
2019-04-06T14:31:31.979Z,17.60
2019-04-06T14:34:09.064Z,16.62
2019-04-06T14:36:59.710Z,17.92
2019-04-06T14:39:33.984Z,16.37
2019-04-06T14:42:21.737Z,17.30
2019-04-06T14:44:53.166Z,16.80
2019-04-06T14:47:27.221Z,16.45
2019-04-06T14:49:58.923Z,15.93
2019-04-06T14:52:32.974Z,17.37
2019-04-06T14:55:10.017Z,17.17
2019-04-06T14:57:41.154Z,17.45
2019-04-06T15:00:30.963Z,17.50
2019-04-06T15:03:02.044Z,17.48
2019-04-06T15:05:35.869Z,18.77
2019-04-06T15:08:19.056Z,17.80
2019-04-06T15:10:50.191Z,17.52
2019-04-06T15:13:30.268Z,17.70
2019-04-06T15:16:01.321Z,18.57
2019-04-06T15:18:51.777Z,18.40
2019-04-06T15:21:28.677Z,16.93
2019-04-06T15:24:00.206Z,16.65
2019-04-06T15:26:37.466Z,17.32
2019-04-06T15:29:11.779Z,17.07
2019-04-06T15:31:49.804Z,16.52
2019-04-06T15:34:24.826Z,17.67
2019-04-06T15:37:06.766Z,16.32
2019-04-06T15:39:37.658Z,19.55
2019-04-06T15:42:20.633Z,18.10
2019-04-06T15:44:51.756Z,18.15
2019-04-06T15:47:38.235Z,18.80
2019-04-06T15:50:26.415Z,18.77
2019-04-06T15:53:00.334Z,20.72
2019-04-06T15:55:31.588Z,23.15
2019-04-06T15:58:18.770Z,23.80
2019-04-06T16:01:05.011Z,19.52
2019-04-06T16:06:22.366Z,20.65
2019-04-06T16:09:13.374Z,19.15
2019-04-06T16:11:51.203Z,19.32
2019-04-06T16:14:34.647Z,19.50
2019-04-06T16:17:05.855Z,19.80
2019-04-06T16:19:45.601Z,18.82
2019-04-06T16:22:19.693Z,18.82
2019-04-06T16:24:56.463Z,18.40
2019-04-06T16:27:33.346Z,18.65
2019-04-06T16:30:10.277Z,19.12
2019-04-06T16:32:47.230Z,19.00
2019-04-06T16:35:24.137Z,20.02
2019-04-06T16:38:10.740Z,19.10
2019-04-06T16:40:58.207Z,19.92
2019-04-06T16:43:32.416Z,19.27
2019-04-06T16:46:03.867Z,19.17
2019-04-06T16:48:46.844Z,19.75
2019-04-06T16:51:34.267Z,19.80
2019-04-06T16:54:26.333Z,20.45
2019-04-06T16:57:03.182Z,21.07
2019-04-06T16:59:40.595Z,21.80
2019-04-06T17:02:27.091Z,24.55
2019-04-06T17:04:58.309Z,22.50
2019-04-06T17:07:45.714Z,22.17
2019-04-06T17:10:17.028Z,21.62
2019-04-06T17:12:48.600Z,22.65
2019-04-06T17:15:38.006Z,21.60
2019-04-06T17:18:15.374Z,22.60
2019-04-06T17:20:58.940Z,21.02
2019-04-06T17:23:39.711Z,21.50
2019-04-06T17:26:17.619Z,20.20
2019-04-06T17:29:01.041Z,19.10
2019-04-06T17:31:49.148Z,19.50
2019-04-06T17:34:38.543Z,18.60
2019-04-06T17:37:10.025Z,18.60
2019-04-06T17:39:41.351Z,19.17
2019-04-06T17:42:18.276Z,18.92
2019-04-06T17:44:55.419Z,20.82
2019-04-06T17:47:43.102Z,19.52
2019-04-06T17:50:14.546Z,20.37
2019-04-06T17:52:45.767Z,18.95
2019-04-06T17:55:33.444Z,17.80
2019-04-06T17:58:07.250Z,19.05
2019-04-06T18:00:55.028Z,19.17
2019-04-06T18:03:27.788Z,19.20
2019-04-06T18:06:15.660Z,19.27
2019-04-06T18:08:56.941Z,18.82
2019-04-06T18:11:28.110Z,19.30
2019-04-06T18:13:57.739Z,21.57
2019-04-06T18:16:28.905Z,26.50
2019-04-06T18:18:58.729Z,24.63
2019-04-06T18:21:29.106Z,23.92
2019-04-06T18:24:00.173Z,24.63
2019-04-06T18:26:29.613Z,23.90
2019-04-06T18:28:59.301Z,22.77
2019-04-06T18:31:45.843Z,22.82
2019-04-06T18:34:16.066Z,28.00
2019-04-06T18:36:56.101Z,23.67
2019-04-06T18:39:26.771Z,21.17
2019-04-06T18:41:56.436Z,22.50
2019-04-06T18:44:26.264Z,21.82
2019-04-06T18:46:57.270Z,21.55
2019-04-06T18:49:28.515Z,22.17
2019-04-06T18:51:58.351Z,22.30
2019-04-06T18:54:28.080Z,21.40
2019-04-06T18:56:58.032Z,22.27
2019-04-06T18:59:27.597Z,19.75
2019-04-06T19:01:57.335Z,21.60
2019-04-06T19:04:27.451Z,21.80
2019-04-06T19:06:57.465Z,20.48
2019-04-06T19:09:27.333Z,22.93
2019-04-06T19:11:57.334Z,21.27
2019-04-06T19:14:27.266Z,17.80
2019-04-06T19:16:57.088Z,19.00
2019-04-06T19:19:27.877Z,20.10
2019-04-06T19:21:57.845Z,18.02
2019-04-06T19:24:28.049Z,18.40
2019-04-06T19:26:57.824Z,17.80
2019-04-06T19:29:27.216Z,17.23
2019-04-06T19:31:58.117Z,17.80
2019-04-06T19:34:28.238Z,22.17
2019-04-06T19:36:59.302Z,17.92
2019-04-06T19:39:29.139Z,18.12
2019-04-06T19:41:58.722Z,16.85
2019-04-06T19:44:28.261Z,16.55
2019-04-06T19:46:59.152Z,16.90
2019-04-06T19:49:29.710Z,16.10
2019-04-06T19:51:59.148Z,16.05
2019-04-06T19:54:28.730Z,18.20
2019-04-06T19:56:58.542Z,17.35
2019-04-06T19:59:28.884Z,16.37
2019-04-06T20:01:58.697Z,16.93
2019-04-06T20:04:28.228Z,16.75
2019-04-06T20:06:58.009Z,17.12
2019-04-06T20:09:27.736Z,17.15
2019-04-06T20:12:04.169Z,17.15
2019-04-06T20:14:28.642Z,16.45
2019-04-06T20:16:58.578Z,16.00
2019-04-06T20:19:29.478Z,15.60
2019-04-06T20:21:59.552Z,17.30
2019-04-06T20:24:29.947Z,16.07
2019-04-06T20:26:59.591Z,35.38
2019-04-06T20:29:29.506Z,77.15
2019-04-06T20:32:00.225Z,21.20
2019-04-06T20:34:29.899Z,19.27
2019-04-06T20:36:59.414Z,20.62
2019-04-06T20:39:28.906Z,20.17
2019-04-06T20:41:58.629Z,19.90
2019-04-06T20:44:28.276Z,19.05
2019-04-06T20:46:57.752Z,17.98
2019-04-06T20:49:27.470Z,18.87
2019-04-06T20:51:58.886Z,18.67
2019-04-06T20:54:28.170Z,18.17
2019-04-06T20:56:58.939Z,17.52
2019-04-06T20:59:28.790Z,17.85
2019-04-06T21:01:58.273Z,18.60
2019-04-06T21:04:28.125Z,18.70
2019-04-06T21:06:57.824Z,17.15
2019-04-06T21:09:27.359Z,17.32
2019-04-06T21:11:56.950Z,16.93
2019-04-06T21:14:26.354Z,17.05
2019-04-06T21:16:55.883Z,17.52
2019-04-06T21:19:25.987Z,18.05
2019-04-06T21:21:58.663Z,17.12
2019-04-06T21:24:27.293Z,16.87
2019-04-06T21:26:57.105Z,16.52
2019-04-06T21:29:26.926Z,17.00
2019-04-06T21:31:56.601Z,16.05
2019-04-06T21:34:26.100Z,15.95
2019-04-06T21:36:56.365Z,17.20
2019-04-06T21:39:26.139Z,18.10
2019-04-06T21:41:55.613Z,15.72
2019-04-06T21:44:25.565Z,15.72
2019-04-06T21:46:55.702Z,16.70
2019-04-06T21:49:25.476Z,15.45
2019-04-06T21:51:55.259Z,16.10
2019-04-06T21:54:26.313Z,16.57
2019-04-06T21:56:55.744Z,16.80
2019-04-06T21:59:25.736Z,16.93
2019-04-06T22:01:55.750Z,15.28
2019-04-06T22:04:26.899Z,15.75
2019-04-06T22:06:57.312Z,15.75
2019-04-06T22:09:27.160Z,15.48
2019-04-06T22:11:56.744Z,15.98
2019-04-06T22:14:26.246Z,14.93
2019-04-06T22:16:56.042Z,16.45
2019-04-06T22:19:25.737Z,16.60
2019-04-06T22:21:55.379Z,17.95
2019-04-06T22:24:26.218Z,18.00
2019-04-06T22:26:56.211Z,16.20
2019-04-06T22:29:25.927Z,16.50
2019-04-06T22:31:55.480Z,16.42
2019-04-06T22:34:34.733Z,17.12
2019-04-06T22:36:56.221Z,16.87
2019-04-06T22:39:26.012Z,17.07
2019-04-06T22:41:55.954Z,16.85
2019-04-06T22:44:25.521Z,16.82
2019-04-06T22:46:55.064Z,17.17
2019-04-06T22:49:24.544Z,17.48
2019-04-06T22:51:54.090Z,17.05
2019-04-06T22:54:23.945Z,17.77
2019-04-06T22:56:53.467Z,16.97
2019-04-06T22:59:23.367Z,18.60
2019-04-06T23:01:53.343Z,17.67
2019-04-06T23:04:24.589Z,17.60
2019-04-06T23:06:56.304Z,17.37
2019-04-06T23:09:26.838Z,18.07
2019-04-06T23:11:56.862Z,18.42
2019-04-06T23:14:46.014Z,19.45
2019-04-06T23:17:15.725Z,18.17
2019-04-06T23:19:45.500Z,18.50
2019-04-06T23:22:15.724Z,18.77
2019-04-06T23:24:45.623Z,19.42
2019-04-06T23:27:15.102Z,17.90
2019-04-06T23:29:44.599Z,18.12
2019-04-06T23:32:14.797Z,18.20
2019-04-06T23:34:44.750Z,18.12
2019-04-06T23:37:14.243Z,18.07
2019-04-06T23:39:43.736Z,18.12
2019-04-06T23:42:13.751Z,18.07
2019-04-06T23:44:43.584Z,18.55
2019-04-06T23:47:13.704Z,18.10
2019-04-06T23:49:43.439Z,17.67
2019-04-06T23:52:12.867Z,18.67
2019-04-06T23:54:42.355Z,18.95
2019-04-06T23:57:11.847Z,18.42
2019-04-06T23:59:41.288Z,17.98
